Aérodrome :
LOGIN :

S'inscrire | Disclaimer

   EN    FR    IT 

 










Légende :    VFR   VFR Marginal   IFR   IFR Intensif   IFR Très Intensif
Visi : 
Plafond : 
>= 8 km
>= 3000ft
5 à 8 km
1000 à 3000 ft
1500m à 5 km
500 à 1000 ft
800 à 1500m
200 à 500 ft
< 800m
< 200 ft
Symboles :   Orages  Brouillard  Fortes neiges  Fortes précipitations  Vent > 20 kt
SIGMETs :   Divers  Orages  Givrage  Turbulence  Onde Orograph.  Cendres Volcan.






- Altitude de l'aérodrome : 995 ft
- Code IATA : KTW


EPKT - Katowice

DERNIER METAR :
  • 210700Z 24007KT 5000 BR NSC M02/M04 Q1040

METARs EXPIRÉS :
  • 210630Z 22009KT 7000 NSC M02/M04 Q1041
  • 210600Z 20008KT 8000 FEW014 M02/M04 Q1041
  • 210530Z 21008KT 9999 SCT013 M02/M03 Q1041
  • 210500Z 22006KT 9999 BKN015 M01/M03 Q1041
  • 210430Z 23006KT 9999 OVC016 M01/M03 Q1042

TAF TAF EPKT
Valide du 21 à 06h jusqu'au 22 à 06h UTC


210530Z 2106/2206 25010KT CAVOK
TEMPO 2106/2108 BKN012



MET'MAP, la Météo Aéronautique d'un coup d'oeil ! - Copyright ORBIFLY Décembre 2007 - Disclaimer

ORBIFLY MET'MAP TEAM :

Programmation & Développement : Alexandra Zaïnal
Sur une idée originale de : Baudouin d'Aumeries
Assistance à la programmation : Marc-Olivier Méhu
Soutien technique & logistique : Manuel Goepfert

Contact : metmap@orbifly.com




SOURCES & CREDITS :

   NOAA